Time;durP1;ratioP1;P1;durP2;ratioP2;P2;SDS_P1;SDS_P2;PMS_P1;PMS_P2;Temp;Humidity;BMP_temperature;BMP_pressure;BME280_temperature;BME280_humidity;BME280_pressure;Samples;Min_cycle;Max_cycle;Signal;HPM_P1;HPM_P2
2022/07/30 00:01:33;;;;;;;12.55;9.18;;;;;;;14.98;91.82;94073.97;5011240;28;20056;-65
2022/07/30 00:04:01;;;;;;;12.00;8.75;;;;;;;15.06;91.67;94080.06;5017899;28;20081;-70
2022/07/30 00:06:28;;;;;;;12.60;8.83;;;;;;;15.14;91.41;94068.34;5013273;28;20049;-72
2022/07/30 00:08:55;;;;;;;11.82;8.60;;;;;;;15.21;90.98;94066.56;5012223;28;20289;-65
2022/07/30 00:11:22;;;;;;;12.43;8.80;;;;;;;15.20;90.79;94071.34;5013254;28;20045;-64
2022/07/30 00:13:53;;;;;;;19.35;9.55;;;;;;;14.91;92.08;94068.63;5012229;28;20042;-68
2022/07/30 00:16:20;;;;;;;13.48;9.77;;;;;;;14.95;90.88;94072.06;5012021;28;20045;-65
2022/07/30 00:18:47;;;;;;;13.17;9.60;;;;;;;15.00;90.77;94066.00;5012337;28;20050;-65
2022/07/30 00:21:13;;;;;;;12.10;9.15;;;;;;;15.02;90.43;94071.88;4999373;28;20053;-66
2022/07/30 00:24:00;;;;;;;12.68;10.15;;;;;;;14.83;90.96;94075.59;5011975;28;20726;-70
2022/07/30 00:26:28;;;;;;;16.23;10.02;;;;;;;15.01;90.82;94078.63;5012684;28;20046;-67
2022/07/30 00:28:55;;;;;;;13.10;9.30;;;;;;;15.02;90.98;94082.16;5011774;28;21477;-65
2022/07/30 00:31:22;;;;;;;11.90;9.20;;;;;;;15.07;90.19;94084.34;5044487;28;20687;-68
2022/07/30 00:33:48;;;;;;;12.68;9.18;;;;;;;15.18;89.82;94068.25;5016309;28;20033;-65
2022/07/30 00:36:15;;;;;;;12.07;9.13;;;;;;;15.22;89.61;94070.91;5014935;28;20396;-64
2022/07/30 00:38:42;;;;;;;14.95;9.70;;;;;;;15.18;89.92;94077.31;5011843;28;20075;-65
2022/07/30 00:41:10;;;;;;;13.20;9.93;;;;;;;15.16;90.25;94074.19;4998673;28;20407;-64
2022/07/30 00:43:38;;;;;;;15.67;10.63;;;;;;;14.88;91.32;94075.81;5004990;28;20046;-67
2022/07/30 00:46:04;;;;;;;13.32;10.63;;;;;;;14.66;93.08;94074.91;4992985;28;20038;-65
2022/07/30 00:48:31;;;;;;;13.50;10.32;;;;;;;14.91;92.31;94079.69;5008917;28;20050;-71
2022/07/30 00:50:58;;;;;;;12.82;10.00;;;;;;;15.03;91.51;94070.66;5003777;28;20038;-64
2022/07/30 00:53:25;;;;;;;13.57;10.52;;;;;;;14.80;92.22;94070.97;5007020;28;20517;-63
2022/07/30 00:55:52;;;;;;;14.27;10.23;;;;;;;14.70;93.42;94070.81;5011647;28;20042;-68
2022/07/30 00:58:18;;;;;;;14.43;10.07;;;;;;;14.68;93.33;94073.25;5012016;28;20046;-66
2022/07/30 01:00:45;;;;;;;15.70;10.60;;;;;;;14.70;93.55;94076.34;5011551;28;20072;-64
2022/07/30 01:03:12;;;;;;;13.85;10.40;;;;;;;14.74;92.99;94076.25;5020065;28;20049;-69
2022/07/30 01:05:39;;;;;;;14.52;9.80;;;;;;;14.83;92.37;94076.38;5011493;28;20045;-65
2022/07/30 01:08:05;;;;;;;12.83;9.10;;;;;;;15.02;91.52;94079.41;5010491;28;20046;-66
2022/07/30 01:10:32;;;;;;;12.80;9.05;;;;;;;15.03;91.03;94090.00;5010688;28;20423;-65
2022/07/30 01:13:00;;;;;;;12.13;9.27;;;;;;;15.09;90.35;94082.72;5008660;28;20076;-66
2022/07/30 01:15:28;;;;;;;12.15;8.82;;;;;;;15.08;89.66;94072.88;5012074;28;20402;-65
2022/07/30 01:17:59;;;;;;;12.85;8.10;;;;;;;15.17;88.64;94073.00;5010609;28;20751;-69
2022/07/30 01:20:32;;;;;;;11.13;8.47;;;;;;;15.24;87.98;94072.00;5011869;28;20491;-68
2022/07/30 01:23:16;;;;;;;10.88;8.10;;;;;;;15.20;87.68;94073.34;5010876;28;20844;-66
2022/07/30 01:26:03;;;;;;;10.75;7.45;;;;;;;15.22;87.38;94068.13;5010978;28;20128;-69
2022/07/30 01:28:35;;;;;;;10.50;7.75;;;;;;;15.21;86.92;94072.09;4997025;28;20668;-66
2022/07/30 01:31:03;;;;;;;10.65;7.90;;;;;;;15.14;87.04;94075.88;5011750;28;20038;-65
2022/07/30 01:33:33;;;;;;;10.87;7.80;;;;;;;15.12;86.65;94081.06;5012954;28;20296;-63
2022/07/30 01:36:00;;;;;;;9.20;7.25;;;;;;;15.05;86.59;94084.03;5022055;28;20041;-68
2022/07/30 01:38:29;;;;;;;16.00;10.85;;;;;;;14.95;86.89;94089.44;5011584;28;20426;-64
2022/07/30 01:41:02;;;;;;;10.57;7.93;;;;;;;14.94;86.53;94087.88;5009825;28;20046;-66
2022/07/30 01:43:31;;;;;;;9.75;6.45;;;;;;;14.89;81.41;94087.66;4996369;28;20150;-69
2022/07/30 01:46:01;;;;;;;7.57;5.53;;;;;;;14.95;78.66;94088.66;5010450;28;20038;-65
2022/07/30 01:48:29;;;;;;;8.82;5.80;;;;;;;15.02;78.22;94095.97;5011198;28;20046;-66
2022/07/30 01:50:59;;;;;;;7.97;6.20;;;;;;;15.01;78.75;94099.94;5010366;28;20054;-65
2022/07/30 01:53:30;;;;;;;9.98;6.55;;;;;;;15.00;80.51;94096.41;5011322;28;20056;-65
2022/07/30 01:55:58;;;;;;;9.20;6.30;;;;;;;14.94;78.84;94092.66;4996529;28;20799;-68
2022/07/30 01:58:28;;;;;;;11.13;5.97;;;;;;;14.98;78.12;94085.03;5011192;28;20054;-66
2022/07/30 02:00:57;;;;;;;7.70;5.53;;;;;;;15.01;76.62;94092.44;4994889;28;20785;-69
2022/07/30 02:03:25;;;;;;;9.60;5.45;;;;;;;15.03;76.03;94092.78;5019744;28;20038;-65
2022/07/30 02:05:59;;;;;;;7.82;5.40;;;;;;;15.06;75.70;94099.41;5010217;28;20042;-65
2022/07/30 02:08:53;;;;;;;7.85;5.47;;;;;;;15.08;74.94;94094.97;5008897;28;20044;-64
2022/07/30 02:14:10;;;;;;;8.23;5.50;;;;;;;15.13;74.31;94088.91;5010394;28;21759;-69
2022/07/30 02:16:39;;;;;;;8.70;5.50;;;;;;;15.12;74.16;94087.34;5008762;28;20498;-72
2022/07/30 02:19:13;;;;;;;9.18;6.10;;;;;;;15.13;73.76;94093.66;5010704;28;20042;-65
2022/07/30 02:21:44;;;;;;;8.55;5.53;;;;;;;15.11;73.94;94085.81;5009909;28;20521;-65
2022/07/30 02:24:20;;;;;;;8.00;5.53;;;;;;;15.10;73.94;94091.78;5010580;28;20061;-68
2022/07/30 02:26:54;;;;;;;49.75;30.73;;;;;;;15.08;74.00;94092.22;5010000;28;20409;-67
2022/07/30 02:29:22;;;;;;;18.30;10.90;;;;;;;15.04;74.60;94088.78;5010473;28;20053;-65
2022/07/30 02:31:51;;;;;;;9.90;6.13;;;;;;;14.96;74.76;94088.22;5009716;28;20690;-65
2022/07/30 02:34:22;;;;;;;8.73;6.43;;;;;;;14.95;75.55;94083.91;5018624;28;20075;-69
2022/07/30 02:36:50;;;;;;;9.63;6.53;;;;;;;14.89;76.12;94085.69;5010374;28;20686;-68
2022/07/30 02:39:19;;;;;;;8.52;6.50;;;;;;;14.89;76.73;94084.88;4998617;28;20054;-69
2022/07/30 02:41:47;;;;;;;11.48;6.65;;;;;;;14.74;77.93;94081.78;5005895;28;20076;-66
2022/07/30 02:44:19;;;;;;;8.40;6.30;;;;;;;14.82;77.23;94085.88;5010395;28;20038;-68
2022/07/30 02:46:48;;;;;;;8.23;6.60;;;;;;;14.83;77.01;94084.69;5009657;28;20438;-65
2022/07/30 02:49:18;;;;;;;9.57;6.50;;;;;;;14.73;77.63;94091.28;5010377;28;20521;-65
2022/07/30 02:51:46;;;;;;;13.50;6.55;;;;;;;14.71;77.83;94096.47;5009563;28;20042;-65
2022/07/30 02:54:16;;;;;;;9.32;6.50;;;;;;;14.73;77.67;94092.06;5008928;28;20068;-65
2022/07/30 02:56:46;;;;;;;9.38;6.00;;;;;;;14.81;77.18;94092.63;5008665;28;20038;-65
2022/07/30 02:59:15;;;;;;;9.23;6.70;;;;;;;14.70;77.37;94087.38;5010257;28;20395;-66
2022/07/30 03:01:43;;;;;;;10.57;6.53;;;;;;;14.74;77.47;94095.59;5011800;28;20412;-66
2022/07/30 03:04:12;;;;;;;10.57;6.35;;;;;;;14.71;77.46;94093.72;5009322;28;20034;-65
2022/07/30 03:06:40;;;;;;;8.70;6.57;;;;;;;14.55;78.18;94091.75;4997955;28;20041;-65
2022/07/30 03:09:08;;;;;;;9.77;6.78;;;;;;;14.37;79.40;94095.78;5008764;28;20499;-66
2022/07/30 03:11:35;;;;;;;9.05;6.40;;;;;;;14.34;79.83;94087.56;5009579;28;20052;-66
2022/07/30 03:14:02;;;;;;;9.53;6.93;;;;;;;14.19;80.68;94093.47;5010372;28;20046;-65
2022/07/30 03:16:35;;;;;;;11.93;7.20;;;;;;;14.05;81.85;94085.56;5010237;28;20050;-66
2022/07/30 03:19:04;;;;;;;10.85;7.25;;;;;;;13.93;82.78;94094.56;5008801;28;21494;-65
2022/07/30 03:21:34;;;;;;;10.13;7.72;;;;;;;13.72;83.61;94093.09;5009504;28;20057;-65
2022/07/30 03:24:03;;;;;;;10.20;7.60;;;;;;;13.69;83.90;94103.03;5009881;28;20052;-66
2022/07/30 03:26:32;;;;;;;11.60;7.87;;;;;;;13.57;84.31;94100.94;5009326;28;20038;-65
2022/07/30 03:29:00;;;;;;;11.30;7.55;;;;;;;13.59;84.39;94104.06;4995703;28;20057;-69
2022/07/30 03:31:29;;;;;;;9.65;7.20;;;;;;;13.62;84.33;94102.41;5008594;28;20406;-65
2022/07/30 03:34:02;;;;;;;10.35;7.32;;;;;;;13.61;84.20;94104.41;5010843;28;20115;-65
2022/07/30 03:36:33;;;;;;;11.48;7.47;;;;;;;13.62;84.15;94102.41;5013418;28;20203;-66
2022/07/30 03:39:00;;;;;;;13.20;7.60;;;;;;;13.58;84.42;94100.53;5013417;28;20658;-68
2022/07/30 03:41:28;;;;;;;9.80;7.40;;;;;;;13.58;84.23;94105.25;5013547;28;20410;-66
2022/07/30 03:43:55;;;;;;;10.95;7.47;;;;;;;13.57;84.04;94109.22;5012392;28;20659;-65
2022/07/30 03:46:23;;;;;;;12.65;7.07;;;;;;;13.53;84.24;94106.53;5013682;28;20478;-66
2022/07/30 03:48:52;;;;;;;9.90;7.57;;;;;;;13.52;83.90;94110.53;5000212;28;20054;-65
2022/07/30 03:51:20;;;;;;;11.17;7.53;;;;;;;13.49;84.18;94111.38;5008415;28;20483;-65
2022/07/30 03:53:47;;;;;;;9.95;7.60;;;;;;;13.47;83.63;94116.53;4990575;28;20038;-65
2022/07/30 03:56:14;;;;;;;10.52;7.57;;;;;;;13.43;83.54;94115.84;4985848;28;20053;-65
2022/07/30 03:58:41;;;;;;;11.57;8.13;;;;;;;13.42;83.17;94121.78;4993127;28;20105;-67
2022/07/30 04:01:08;;;;;;;11.43;7.57;;;;;;;13.36;82.95;94107.72;4993535;28;20052;-66
2022/07/30 04:03:35;;;;;;;9.40;6.80;;;;;;;13.33;82.86;94114.09;4997267;28;20046;-67
2022/07/30 04:06:01;;;;;;;10.73;7.55;;;;;;;13.34;83.02;94119.19;4992852;28;20050;-65
2022/07/30 04:08:28;;;;;;;11.23;7.05;;;;;;;13.30;82.49;94137.00;4993670;28;20050;-65
2022/07/30 04:10:55;;;;;;;11.30;7.00;;;;;;;13.29;83.12;94135.44;4996180;28;20656;-65
2022/07/30 04:13:22;;;;;;;10.70;6.78;;;;;;;13.30;82.61;94129.53;4993685;28;20058;-66
2022/07/30 04:16:04;;;;;;;8.67;6.60;;;;;;;13.31;82.55;94133.06;5032133;28;20414;-68
2022/07/30 04:18:55;;;;;;;11.27;7.15;;;;;;;13.30;82.61;94134.25;4991471;28;20046;-65
2022/07/30 04:21:24;;;;;;;9.55;6.93;;;;;;;13.32;82.40;94140.91;4991914;28;20410;-66
2022/07/30 04:23:52;;;;;;;9.40;6.93;;;;;;;13.38;82.01;94152.16;4973065;28;20051;-70
2022/07/30 04:26:34;;;;;;;10.20;7.20;;;;;;;13.39;82.46;94150.97;4972875;28;20039;-66
2022/07/30 04:29:03;;;;;;;10.23;7.27;;;;;;;13.38;82.00;94152.97;4976520;28;20042;-65
2022/07/30 04:31:34;;;;;;;12.27;7.18;;;;;;;13.38;81.86;94160.44;4981776;28;20054;-61
2022/07/30 04:34:07;;;;;;;12.05;7.40;;;;;;;13.39;81.36;94154.50;4980123;28;20052;-64
2022/07/30 04:36:37;;;;;;;10.27;7.43;;;;;;;13.39;82.12;94162.00;4983781;28;20070;-64
2022/07/30 04:39:03;;;;;;;11.43;7.90;;;;;;;13.28;82.33;94161.44;4983263;28;20042;-64
2022/07/30 04:41:30;;;;;;;10.37;7.40;;;;;;;13.46;81.74;94161.06;4992249;28;20069;-65
2022/07/30 04:44:16;;;;;;;12.60;7.63;;;;;;;13.54;81.46;94160.50;4986925;28;20055;-65
2022/07/30 04:46:42;;;;;;;10.07;7.68;;;;;;;13.61;81.37;94167.81;4976244;28;20541;-68
2022/07/30 04:49:11;;;;;;;11.30;7.50;;;;;;;13.62;81.14;94169.34;4983192;28;20043;-64
2022/07/30 04:51:39;;;;;;;9.05;7.22;;;;;;;13.72;80.75;94170.31;4972863;28;20043;-63
2022/07/30 04:54:09;;;;;;;9.07;7.27;;;;;;;13.75;80.32;94175.00;4972575;28;20051;-64
2022/07/30 04:56:44;;;;;;;10.38;7.30;;;;;;;13.81;80.39;94183.53;4984789;28;20050;-64
2022/07/30 04:59:22;;;;;;;10.50;7.75;;;;;;;13.75;80.74;94178.53;4973231;28;20077;-65
2022/07/30 05:01:49;;;;;;;12.85;8.38;;;;;;;13.74;80.77;94176.19;4979235;28;20041;-64
2022/07/30 05:04:18;;;;;;;14.90;8.27;;;;;;;13.73;80.79;94186.44;4985435;28;20121;-64
2022/07/30 05:06:45;;;;;;;13.73;8.90;;;;;;;13.70;81.04;94183.75;4972129;28;20050;-69
2022/07/30 05:09:14;;;;;;;15.02;8.30;;;;;;;13.62;80.96;94174.09;4978163;28;20065;-65
2022/07/30 05:11:48;;;;;;;13.52;8.25;;;;;;;13.55;81.16;94180.56;4981853;28;20043;-65
2022/07/30 05:14:15;;;;;;;11.73;7.78;;;;;;;13.48;81.52;94178.75;4973289;28;20043;-67
2022/07/30 05:16:41;;;;;;;14.85;9.02;;;;;;;13.47;81.87;94188.22;4971652;28;20069;-64
2022/07/30 05:19:08;;;;;;;15.77;9.63;;;;;;;13.61;82.19;94184.38;4972542;28;20061;-64
2022/07/30 05:21:35;;;;;;;14.13;8.60;;;;;;;13.64;82.15;94191.78;4972502;28;20081;-64
2022/07/30 05:24:01;;;;;;;11.90;8.23;;;;;;;13.88;81.46;94188.88;4972274;28;20404;-67
2022/07/30 05:26:28;;;;;;;11.77;9.00;;;;;;;14.05;81.11;94192.44;4972329;28;20131;-66
2022/07/30 05:28:55;;;;;;;13.85;9.05;;;;;;;14.16;81.12;94199.22;4970333;28;20763;-64
2022/07/30 05:31:23;;;;;;;11.50;8.57;;;;;;;14.27;80.84;94198.19;4972369;28;20089;-64
2022/07/30 05:33:51;;;;;;;14.02;8.75;;;;;;;14.29;80.76;94198.53;4974927;28;20051;-64
2022/07/30 05:36:19;;;;;;;12.00;8.60;;;;;;;14.23;81.32;94194.75;4991657;28;20454;-64
2022/07/30 05:38:46;;;;;;;11.77;8.27;;;;;;;14.31;81.25;94198.88;4975284;28;20390;-65
2022/07/30 05:41:13;;;;;;;15.00;9.25;;;;;;;14.41;81.28;94200.59;4972488;28;20072;-64
2022/07/30 05:43:57;;;;;;;14.33;8.60;;;;;;;14.39;81.26;94201.03;4990791;28;20904;-65
2022/07/30 05:46:24;;;;;;;11.35;8.02;;;;;;;14.55;80.37;94199.47;4990860;28;20076;-70
2022/07/30 05:48:50;;;;;;;9.57;7.82;;;;;;;14.70;79.57;94197.88;4993085;28;20472;-63
2022/07/30 05:51:19;;;;;;;9.18;7.30;;;;;;;15.06;77.81;94202.44;4991599;28;20050;-64
2022/07/30 05:53:46;;;;;;;13.57;7.55;;;;;;;17.79;69.01;94193.50;4990359;28;20406;-67
2022/07/30 05:56:13;;;;;;;9.97;6.37;;;;;;;20.86;57.27;94190.72;4990970;28;20049;-65
2022/07/30 05:58:40;;;;;;;8.23;5.90;;;;;;;22.99;51.31;94189.88;4990611;28;20042;-65
2022/07/30 06:01:06;;;;;;;9.95;5.90;;;;;;;24.40;46.80;94190.50;4994806;28;20048;-65
2022/07/30 06:03:33;;;;;;;9.88;5.95;;;;;;;24.91;44.66;94191.56;4992271;28;20042;-65
2022/07/30 06:06:04;;;;;;;8.70;5.22;;;;;;;25.50;43.03;94188.00;5005918;28;20054;-65
2022/07/30 06:08:32;;;;;;;13.20;5.70;;;;;;;25.62;42.24;94191.59;4989682;28;20112;-69
2022/07/30 06:10:58;;;;;;;12.00;5.95;;;;;;;25.45;42.06;94193.59;4989959;28;20398;-65
2022/07/30 06:13:25;;;;;;;8.30;6.07;;;;;;;25.95;41.04;94190.13;4976088;28;20089;-65
2022/07/30 06:15:52;;;;;;;9.95;6.22;;;;;;;26.75;40.63;94194.44;4970473;28;20151;-68
2022/07/30 06:18:19;;;;;;;10.02;6.28;;;;;;;28.07;37.55;94192.06;4975643;28;20053;-68
2022/07/30 06:20:50;;;;;;;9.80;6.37;;;;;;;28.94;36.49;94191.53;4983007;28;20047;-66
2022/07/30 06:23:17;;;;;;;8.32;6.20;;;;;;;29.87;34.22;94197.84;4971200;28;20074;-65
2022/07/30 06:25:45;;;;;;;7.10;5.75;;;;;;;30.19;33.43;94194.28;4971153;28;20407;-70
2022/07/30 06:28:13;;;;;;;8.57;5.63;;;;;;;29.93;33.94;94194.94;4972088;28;20039;-64
2022/07/30 06:31:01;;;;;;;7.50;5.57;;;;;;;30.75;31.99;94194.66;4970089;28;20544;-65
2022/07/30 06:33:28;;;;;;;8.40;6.10;;;;;;;28.23;34.97;94198.06;4973099;28;20039;-65
2022/07/30 06:35:55;;;;;;;9.40;6.15;;;;;;;26.20;38.84;94199.59;4998644;28;20049;-67
2022/07/30 06:38:21;;;;;;;8.23;5.38;;;;;;;27.43;36.88;94197.03;5009896;28;20502;-64
2022/07/30 06:40:48;;;;;;;10.90;6.13;;;;;;;26.96;37.61;94200.50;5009792;28;20438;-71
2022/07/30 06:43:15;;;;;;;7.65;5.75;;;;;;;30.32;32.78;94195.66;5009904;28;20077;-67
2022/07/30 06:45:42;;;;;;;8.77;5.90;;;;;;;29.78;33.42;94198.25;5009057;28;20509;-65
2022/07/30 06:48:08;;;;;;;7.53;5.15;;;;;;;31.81;30.35;94194.66;5006580;28;20534;-68
2022/07/30 06:50:36;;;;;;;9.27;5.47;;;;;;;32.83;28.60;94187.28;4997902;28;20123;-66
2022/07/30 06:53:03;;;;;;;9.35;5.68;;;;;;;33.27;27.72;94189.50;5009340;28;20042;-65
2022/07/30 06:55:29;;;;;;;6.63;4.60;;;;;;;33.98;26.66;94192.88;5009795;28;20052;-64
2022/07/30 06:57:56;;;;;;;10.83;4.60;;;;;;;33.79;25.54;94195.28;5008721;28;21847;-69
2022/07/30 07:00:23;;;;;;;7.53;4.60;;;;;;;33.10;25.64;94190.00;5009546;28;20396;-65
2022/07/30 07:02:50;;;;;;;7.40;4.28;;;;;;;34.15;24.92;94195.22;5008144;28;20052;-65
2022/07/30 07:05:17;;;;;;;6.75;4.30;;;;;;;31.91;26.53;94188.50;5010439;28;20054;-67
2022/07/30 07:07:44;;;;;;;8.70;3.90;;;;;;;33.12;25.87;94193.03;5008522;28;20395;-70
2022/07/30 07:10:24;;;;;;;6.57;4.00;;;;;;;34.20;24.07;94196.38;5009822;28;20046;-69
2022/07/30 07:12:51;;;;;;;5.85;3.80;;;;;;;32.84;24.41;94196.59;5008804;28;20046;-68
2022/07/30 07:15:18;;;;;;;5.60;3.92;;;;;;;33.65;24.40;94205.28;5009369;28;20045;-66
2022/07/30 07:17:48;;;;;;;5.68;3.70;;;;;;;33.73;24.02;94198.28;5009145;28;20049;-65
2022/07/30 07:20:14;;;;;;;5.88;3.63;;;;;;;35.00;22.38;94215.28;5009104;28;20045;-65
2022/07/30 07:22:41;;;;;;;4.70;3.00;;;;;;;34.75;22.29;94210.16;5007347;28;20083;-65
2022/07/30 07:25:10;;;;;;;5.30;3.28;;;;;;;34.65;22.25;94200.63;5008781;28;20789;-65
2022/07/30 07:27:37;;;;;;;8.57;3.95;;;;;;;30.48;26.39;94200.25;4995139;28;20042;-69
2022/07/30 07:30:05;;;;;;;5.68;3.50;;;;;;;32.37;24.74;94206.78;5008641;28;20108;-66
2022/07/30 07:32:36;;;;;;;4.75;3.28;;;;;;;33.15;23.31;94208.97;5009066;28;20457;-66
2022/07/30 07:35:03;;;;;;;5.90;3.20;;;;;;;34.84;21.87;94208.06;5050107;28;20045;-65
2022/07/30 07:37:30;;;;;;;5.47;3.35;;;;;;;33.45;23.38;94221.84;5008056;28;20054;-70
2022/07/30 07:39:57;;;;;;;5.20;3.55;;;;;;;34.85;21.47;94216.03;5009192;28;20059;-67
2022/07/30 07:42:24;;;;;;;5.28;3.00;;;;;;;33.93;22.73;94216.59;5009742;28;20068;-68
2022/07/30 07:44:51;;;;;;;5.35;3.20;;;;;;;35.06;21.31;94215.09;5008379;28;20042;-66
2022/07/30 07:47:17;;;;;;;6.53;3.00;;;;;;;35.98;19.88;94212.78;5040648;28;20491;-67
2022/07/30 07:49:44;;;;;;;7.35;3.30;;;;;;;36.02;19.72;94212.38;5008989;28;20042;-68
2022/07/30 07:52:11;;;;;;;4.95;3.45;;;;;;;35.68;20.60;94205.09;5023213;28;20046;-66
2022/07/30 07:54:37;;;;;;;5.32;2.95;;;;;;;35.04;20.70;94209.19;5009219;28;20046;-66
2022/07/30 07:57:06;;;;;;;5.57;3.00;;;;;;;33.26;21.83;94210.72;5009031;28;20038;-66
2022/07/30 07:59:36;;;;;;;5.03;2.80;;;;;;;36.26;19.01;94210.16;5008612;28;20048;-65
2022/07/30 08:02:09;;;;;;;5.75;3.33;;;;;;;32.28;22.38;94215.78;5014654;28;20048;-65
2022/07/30 08:04:36;;;;;;;6.55;3.60;;;;;;;31.86;23.59;94221.38;4994774;28;20072;-68
2022/07/30 08:07:03;;;;;;;4.07;2.72;;;;;;;32.60;22.80;94217.63;5008560;28;20046;-66
2022/07/30 08:09:30;;;;;;;4.30;2.92;;;;;;;33.26;22.01;94224.19;5008741;28;20048;-65
2022/07/30 08:12:12;;;;;;;4.13;2.90;;;;;;;36.09;19.26;94225.09;5007423;28;20068;-65
2022/07/30 08:14:39;;;;;;;5.75;2.95;;;;;;;37.70;17.80;94218.16;5008626;28;20058;-66
2022/07/30 08:17:05;;;;;;;6.03;3.22;;;;;;;35.94;19.06;94215.28;5009187;28;20038;-65
2022/07/30 08:19:33;;;;;;;4.72;2.72;;;;;;;31.26;23.38;94217.91;5010059;28;20116;-67
2022/07/30 08:22:00;;;;;;;6.95;3.00;;;;;;;33.64;21.42;94215.91;5012487;28;20050;-66
2022/07/30 08:24:27;;;;;;;5.30;3.00;;;;;;;31.72;23.24;94211.38;5013143;28;20050;-65
2022/07/30 08:26:53;;;;;;;5.30;3.03;;;;;;;31.45;23.63;94217.84;5012533;28;20060;-65
2022/07/30 08:29:20;;;;;;;5.72;2.97;;;;;;;33.48;21.79;94214.28;5012535;28;20050;-66
2022/07/30 08:31:47;;;;;;;5.13;3.17;;;;;;;31.20;23.84;94222.94;5012466;28;20410;-67
2022/07/30 08:34:13;;;;;;;12.40;3.40;;;;;;;27.37;28.67;94224.50;5020486;28;20053;-64
2022/07/30 08:36:40;;;;;;;5.93;3.30;;;;;;;28.20;27.77;94219.66;5013902;28;20038;-64
2022/07/30 08:39:07;;;;;;;6.10;3.33;;;;;;;30.03;25.57;94220.78;5012567;28;20046;-65
2022/07/30 08:41:37;;;;;;;6.50;3.05;;;;;;;33.39;21.98;94213.47;5012077;28;20054;-65
2022/07/30 08:44:09;;;;;;;5.40;2.80;;;;;;;35.00;20.26;94210.31;5027432;28;20060;-65
2022/07/30 08:46:42;;;;;;;4.93;2.80;;;;;;;35.48;20.19;94203.22;5012300;28;20052;-66
2022/07/30 08:49:14;;;;;;;3.53;2.60;;;;;;;34.69;20.13;94209.59;5011913;28;20495;-66
2022/07/30 08:51:42;;;;;;;6.18;2.80;;;;;;;33.24;20.61;94216.22;5011903;28;20430;-65
2022/07/30 08:54:09;;;;;;;10.77;3.00;;;;;;;30.77;23.88;94209.81;5012120;28;20050;-65
2022/07/30 08:56:36;;;;;;;5.25;2.83;;;;;;;33.03;21.10;94213.41;5011795;28;20046;-64
2022/07/30 08:59:03;;;;;;;3.30;2.55;;;;;;;33.86;20.41;94208.03;5011753;28;20448;-66
2022/07/30 09:01:30;;;;;;;3.90;2.50;;;;;;;33.43;20.69;94205.34;5012375;28;20151;-65
2022/07/30 09:03:57;;;;;;;3.85;2.20;;;;;;;33.95;20.41;94208.25;5020875;28;20045;-65
2022/07/30 09:06:24;;;;;;;3.65;2.38;;;;;;;35.35;18.78;94198.50;5012036;28;20406;-65
2022/07/30 09:08:51;;;;;;;4.70;2.47;;;;;;;34.74;19.66;94207.88;5011880;28;20045;-65
2022/07/30 09:11:17;;;;;;;6.13;2.40;;;;;;;32.84;21.52;94208.72;5008306;28;20426;-65
2022/07/30 09:13:44;;;;;;;5.10;2.43;;;;;;;33.65;20.44;94208.88;5011853;28;20431;-65
2022/07/30 09:16:22;;;;;;;7.40;2.63;;;;;;;31.39;22.32;94202.19;5011921;28;20042;-65
2022/07/30 09:18:50;;;;;;;5.35;2.63;;;;;;;31.68;22.98;94203.19;5011257;28;20376;-65
2022/07/30 09:21:22;;;;;;;5.50;2.60;;;;;;;33.00;21.70;94203.13;4999843;28;20112;-65
2022/07/30 09:24:03;;;;;;;3.92;2.20;;;;;;;34.90;20.16;94211.47;4991568;28;20052;-65
2022/07/30 09:26:31;;;;;;;3.70;2.40;;;;;;;32.50;21.83;94208.03;4992288;28;20410;-61
2022/07/30 09:29:16;;;;;;;4.97;2.40;;;;;;;30.91;23.73;94204.16;5009215;28;20388;-64
2022/07/30 09:31:53;;;;;;;4.03;2.47;;;;;;;31.56;22.31;94199.81;5010418;28;20507;-64
2022/07/30 09:34:31;;;;;;;4.80;2.70;;;;;;;32.50;22.22;94202.34;5016195;28;20053;-65
2022/07/30 09:37:08;;;;;;;6.38;2.63;;;;;;;34.69;20.12;94212.44;5010616;28;21651;-69
2022/07/30 09:39:40;;;;;;;4.77;2.30;;;;;;;33.06;20.89;94212.28;5010942;28;20418;-67
2022/07/30 09:42:25;;;;;;;5.45;2.50;;;;;;;32.29;21.84;94208.03;5011299;28;20125;-65
2022/07/30 09:45:04;;;;;;;3.47;2.20;;;;;;;32.77;21.91;94217.94;5010909;28;20064;-65
2022/07/30 09:47:37;;;;;;;4.13;2.33;;;;;;;34.78;19.25;94213.94;5011138;28;20375;-67
2022/07/30 09:50:12;;;;;;;4.43;2.42;;;;;;;36.28;17.77;94201.78;5011106;28;20107;-66
2022/07/30 09:53:06;;;;;;;3.97;2.10;;;;;;;36.50;17.07;94200.88;5010336;28;20449;-65
2022/07/30 09:55:35;;;;;;;3.55;2.00;;;;;;;35.61;18.69;94200.88;5010913;28;20125;-64
2022/07/30 09:58:08;;;;;;;4.13;2.00;;;;;;;37.74;17.36;94197.69;4995369;28;20072;-65
2022/07/30 10:00:39;;;;;;;3.42;2.00;;;;;;;37.14;17.52;94201.34;5010469;28;20434;-66
2022/07/30 10:03:20;;;;;;;5.10;2.40;;;;;;;34.55;19.31;94202.50;5024121;28;20490;-65
2022/07/30 10:06:07;;;;;;;4.13;2.10;;;;;;;34.45;19.31;94201.53;5000127;28;20122;-66
2022/07/30 10:08:37;;;;;;;3.75;2.20;;;;;;;35.06;18.75;94195.88;5010483;28;20072;-66
2022/07/30 10:11:04;;;;;;;3.83;2.20;;;;;;;35.47;18.74;94191.03;5010630;28;20034;-65
2022/07/30 10:13:36;;;;;;;3.70;2.10;;;;;;;37.49;16.75;94189.16;5010519;28;20415;-66
2022/07/30 10:16:06;;;;;;;2.92;1.90;;;;;;;34.75;19.58;94207.31;5010763;28;20060;-66
2022/07/30 10:18:34;;;;;;;4.40;1.80;;;;;;;36.45;17.66;94193.28;5010528;28;20427;-65
2022/07/30 10:21:03;;;;;;;3.20;1.80;;;;;;;38.26;16.10;94186.16;5010558;28;20044;-69
2022/07/30 10:23:32;;;;;;;3.75;1.88;;;;;;;38.25;15.98;94181.00;5010399;28;20049;-64
2022/07/30 10:25:59;;;;;;;3.30;1.88;;;;;;;36.52;17.34;94181.06;5010486;28;20042;-66
2022/07/30 10:28:30;;;;;;;2.75;1.70;;;;;;;34.45;19.58;94185.22;5010618;28;20479;-65
2022/07/30 10:31:04;;;;;;;4.77;1.90;;;;;;;34.38;19.07;94186.72;5008268;28;20423;-66
2022/07/30 10:33:51;;;;;;;3.67;1.80;;;;;;;33.38;20.20;94185.56;5014075;28;20072;-65
2022/07/30 10:36:21;;;;;;;4.70;2.30;;;;;;;33.18;20.93;94181.47;5010395;28;20441;-67
2022/07/30 10:38:51;;;;;;;4.05;1.90;;;;;;;34.31;19.41;94175.31;5010200;28;20060;-65
2022/07/30 10:41:40;;;;;;;3.53;2.17;;;;;;;32.29;22.57;94182.47;5010172;28;20053;-65
2022/07/30 10:44:44;;;;;;;3.67;2.50;;;;;;;29.77;25.02;94193.13;5009251;28;20329;-65
2022/07/30 10:47:15;;;;;;;4.55;2.10;;;;;;;31.70;22.74;94186.38;5009271;28;20734;-64
2022/07/30 10:50:04;;;;;;;3.55;2.30;;;;;;;31.92;22.14;94182.25;5010245;28;20052;-64
2022/07/30 10:52:52;;;;;;;4.65;2.10;;;;;;;32.34;22.51;94181.59;5010253;28;20059;-67
2022/07/30 10:55:24;;;;;;;4.28;2.10;;;;;;;33.16;21.15;94182.06;5009818;28;20127;-65
2022/07/30 10:58:07;;;;;;;3.50;2.27;;;;;;;31.31;22.98;94179.44;5009236;28;20084;-66
2022/07/30 11:00:54;;;;;;;5.32;2.50;;;;;;;29.86;24.40;94178.56;5009822;28;20178;-65
2022/07/30 11:03:26;;;;;;;5.35;2.75;;;;;;;29.22;25.87;94179.16;5016130;28;20057;-65
2022/07/30 11:06:13;;;;;;;4.05;2.72;;;;;;;30.29;25.04;94180.47;4993496;28;20034;-64
2022/07/30 11:08:44;;;;;;;3.92;2.40;;;;;;;29.30;25.15;94174.44;5009410;28;20103;-64
2022/07/30 11:11:19;;;;;;;3.73;2.60;;;;;;;27.95;27.15;94170.84;5009062;28;20068;-64
2022/07/30 11:14:06;;;;;;;3.95;2.10;;;;;;;28.82;26.20;94181.66;5009732;28;20046;-64
2022/07/30 11:16:33;;;;;;;4.03;2.30;;;;;;;29.74;24.31;94171.53;5009803;28;20544;-64
2022/07/30 11:19:16;;;;;;;4.20;2.30;;;;;;;28.99;25.53;94182.22;5009876;28;20549;-65
2022/07/30 11:22:25;;;;;;;3.60;2.50;;;;;;;28.58;26.25;94174.69;5009272;28;20415;-67
2022/07/30 11:24:52;;;;;;;4.03;2.60;;;;;;;28.57;26.35;94173.16;5009689;28;20045;-65
2022/07/30 11:27:39;;;;;;;5.13;2.63;;;;;;;28.49;26.98;94189.91;5009378;28;20053;-64
2022/07/30 11:30:16;;;;;;;5.55;2.70;;;;;;;27.85;27.24;94178.84;5009077;28;20587;-64
2022/07/30 11:32:51;;;;;;;5.32;2.65;;;;;;;28.26;27.63;94172.38;5009443;28;20057;-64
2022/07/30 11:35:29;;;;;;;4.40;2.60;;;;;;;27.78;27.93;94173.75;5016918;28;20401;-64
2022/07/30 11:38:18;;;;;;;4.37;2.67;;;;;;;27.97;27.09;94173.91;5008930;28;20085;-64
2022/07/30 11:40:47;;;;;;;5.03;2.40;;;;;;;28.27;26.91;94173.94;5009574;28;20052;-66
2022/07/30 11:43:20;;;;;;;4.80;2.65;;;;;;;28.44;26.07;94170.94;5009644;28;20053;-64
2022/07/30 11:46:03;;;;;;;4.72;2.70;;;;;;;27.02;28.00;94161.06;5009306;28;20829;-64
2022/07/30 11:48:31;;;;;;;4.47;2.80;;;;;;;26.42;29.23;94165.06;4996005;28;20052;-62